Time;durP1;ratioP1;P1;durP2;ratioP2;P2;SDS_P1;SDS_P2;PMS_P1;PMS_P2;Temp;Humidity;BMP_temperature;BMP_pressure;BME280_temperature;BME280_humidity;BME280_pressure;Samples;Min_cycle;Max_cycle;Signal;HPM_P1;HPM_P2
2021/09/22 00:00:28;;;;;;;13.30;10.75;;;358.90;2329.60;;;;;;5044322;28;20495;-73
2021/09/22 00:02:54;;;;;;;12.63;9.43;;;358.90;2329.60;;;;;;5044257;28;20119;-73
2021/09/22 00:05:20;;;;;;;14.73;10.23;;;358.90;2329.60;;;;;;5036455;28;20040;-73
2021/09/22 00:07:46;;;;;;;12.95;9.77;;;358.90;2329.60;;;;;;5054451;28;20021;-73
2021/09/22 00:10:15;;;;;;;13.50;10.30;;;358.80;2329.60;;;;;;5054784;28;20100;-73
2021/09/22 00:12:42;;;;;;;14.85;11.25;;;358.80;2329.60;;;;;;5054218;28;20047;-73
2021/09/22 00:15:12;;;;;;;18.45;11.13;;;358.80;2329.60;;;;;;5054707;28;20086;-73
2021/09/22 00:17:38;;;;;;;16.38;11.05;;;358.80;2329.60;;;;;;5041621;28;20032;-73
2021/09/22 00:20:05;;;;;;;14.68;10.90;;;358.80;2329.60;;;;;;5036806;28;20033;-74
2021/09/22 00:22:31;;;;;;;14.38;11.25;;;358.70;2329.60;;;;;;5034381;28;20033;-73
2021/09/22 00:24:56;;;;;;;15.30;11.80;;;358.70;2329.60;;;;;;5036296;28;20120;-73
2021/09/22 00:27:22;;;;;;;14.20;10.77;;;358.70;2329.60;;;;;;5035129;28;20472;-73
2021/09/22 00:29:48;;;;;;;16.00;11.65;;;358.80;2329.60;;;;;;5030393;28;20430;-74
2021/09/22 00:32:14;;;;;;;14.50;10.88;;;358.70;2329.60;;;;;;5028284;28;20079;-74
2021/09/22 00:34:40;;;;;;;16.35;12.38;;;358.80;2329.60;;;;;;5032796;28;20917;-74
2021/09/22 00:37:06;;;;;;;20.45;13.00;;;358.70;2329.60;;;;;;5044141;28;20033;-73
2021/09/22 00:39:35;;;;;;;15.70;11.85;;;358.70;2329.60;;;;;;5053702;28;20087;-73
2021/09/22 00:42:02;;;;;;;16.95;11.93;;;358.70;2329.60;;;;;;5032660;28;20025;-74
2021/09/22 00:44:28;;;;;;;14.32;9.95;;;358.70;2329.60;;;;;;5034267;28;20029;-73
2021/09/22 00:46:54;;;;;;;15.82;11.48;;;358.70;2329.60;;;;;;5054171;28;20052;-73
2021/09/22 00:49:21;;;;;;;16.23;11.80;;;358.70;2329.60;;;;;;5053649;28;20468;-74
2021/09/22 00:51:47;;;;;;;16.20;12.10;;;358.70;2329.60;;;;;;5031214;28;20045;-73
2021/09/22 00:54:13;;;;;;;20.08;13.25;;;358.70;2329.60;;;;;;5026487;28;20064;-74
2021/09/22 00:56:39;;;;;;;13.82;9.90;;;358.70;2329.60;;;;;;5032696;28;20040;-74
2021/09/22 00:59:05;;;;;;;16.08;11.18;;;358.70;2329.60;;;;;;5025359;28;20029;-73
2021/09/22 01:01:32;;;;;;;14.55;10.25;;;358.70;2329.60;;;;;;5032186;28;20064;-74
2021/09/22 01:04:00;;;;;;;13.52;10.32;;;358.70;2329.60;;;;;;5041046;28;20024;-73
2021/09/22 01:06:26;;;;;;;17.98;11.23;;;358.70;2329.60;;;;;;5053645;28;20053;-73
2021/09/22 01:08:52;;;;;;;18.52;12.82;;;358.70;2329.60;;;;;;5053575;28;20049;-74
2021/09/22 01:11:19;;;;;;;16.27;11.98;;;358.70;2329.60;;;;;;5053453;28;20470;-74
2021/09/22 01:13:45;;;;;;;16.25;10.80;;;358.70;2329.60;;;;;;5053649;28;20049;-73
2021/09/22 01:16:11;;;;;;;19.00;10.55;;;358.70;2329.60;;;;;;5035402;28;20025;-74
2021/09/22 01:18:37;;;;;;;14.23;11.32;;;358.70;2329.60;;;;;;5053228;28;20730;-75
2021/09/22 01:21:04;;;;;;;18.33;11.40;;;358.70;2329.60;;;;;;5027771;28;20068;-73
2021/09/22 01:23:30;;;;;;;17.27;12.75;;;358.70;2329.60;;;;;;5015567;28;20116;-73
2021/09/22 01:25:56;;;;;;;17.13;11.93;;;358.70;2329.60;;;;;;5039488;28;20059;-74
2021/09/22 01:28:26;;;;;;;15.32;10.82;;;358.70;2329.60;;;;;;5029743;28;20036;-74
2021/09/22 01:30:52;;;;;;;16.92;11.68;;;358.70;2329.60;;;;;;5052851;28;20028;-73
2021/09/22 01:33:21;;;;;;;13.82;11.05;;;358.60;2329.60;;;;;;5039767;28;20059;-74
2021/09/22 01:35:47;;;;;;;14.18;11.05;;;358.60;2329.60;;;;;;5035001;28;20028;-74
2021/09/22 01:38:20;;;;;;;17.33;11.90;;;358.60;2329.60;;;;;;5030024;28;20737;-73
2021/09/22 01:41:13;;;;;;;17.80;12.35;;;358.60;2329.60;;;;;;5032963;28;20472;-74
2021/09/22 01:43:39;;;;;;;17.42;12.70;;;358.60;2329.60;;;;;;5037988;28;20041;-74
2021/09/22 01:46:07;;;;;;;18.50;12.25;;;358.60;2329.60;;;;;;5038948;28;20053;-73
2021/09/22 01:48:33;;;;;;;16.40;12.05;;;358.60;2329.60;;;;;;5017969;28;20018;-73
2021/09/22 01:51:01;;;;;;;18.33;12.45;;;358.50;2329.60;;;;;;5045524;28;20737;-74
2021/09/22 01:53:27;;;;;;;13.75;10.98;;;358.50;2329.60;;;;;;5052317;28;20032;-73
2021/09/22 01:55:54;;;;;;;13.82;11.35;;;358.50;2329.60;;;;;;5052952;28;20468;-73
2021/09/22 01:58:20;;;;;;;14.48;10.85;;;358.50;2329.60;;;;;;5052414;28;20029;-73
2021/09/22 02:00:47;;;;;;;14.52;11.07;;;358.60;2329.60;;;;;;5025525;28;20025;-73
2021/09/22 02:03:15;;;;;;;16.15;11.65;;;358.50;2329.60;;;;;;5046428;28;20104;-73
2021/09/22 02:05:44;;;;;;;16.98;12.32;;;358.50;2329.60;;;;;;5021757;28;20107;-72
2021/09/22 02:08:11;;;;;;;15.18;11.15;;;358.50;2329.60;;;;;;5029519;28;20136;-73
2021/09/22 02:10:37;;;;;;;14.05;10.95;;;358.50;2329.60;;;;;;5028481;28;20029;-73
2021/09/22 02:13:03;;;;;;;16.73;12.25;;;358.50;2329.60;;;;;;5044646;28;20029;-73
2021/09/22 02:15:29;;;;;;;15.07;10.77;;;358.40;2329.60;;;;;;5051992;28;20075;-73
2021/09/22 02:17:55;;;;;;;19.17;11.80;;;358.40;2329.60;;;;;;5031246;28;20025;-73
2021/09/22 02:20:20;;;;;;;14.60;10.25;;;358.40;2329.60;;;;;;5024978;28;20045;-73
2021/09/22 02:22:47;;;;;;;16.50;12.27;;;358.40;2329.60;;;;;;5047025;28;20032;-73
2021/09/22 02:25:13;;;;;;;14.82;11.30;;;333.70;2329.60;;;;;;5051806;28;20040;-73
2021/09/22 02:27:39;;;;;;;15.18;11.07;;;358.40;2329.60;;;;;;5052265;28;20048;-74
2021/09/22 02:30:07;;;;;;;13.07;11.02;;;358.40;2329.60;;;;;;5032750;28;20446;-73
2021/09/22 02:32:33;;;;;;;16.38;10.75;;;358.40;2329.60;;;;;;5051717;28;20025;-73
2021/09/22 02:34:59;;;;;;;14.25;11.13;;;358.40;2329.60;;;;;;5052017;28;20021;-74
2021/09/22 02:37:25;;;;;;;17.30;12.38;;;358.40;2329.60;;;;;;5051288;28;20032;-73
2021/09/22 02:39:52;;;;;;;15.60;11.85;;;333.70;2329.60;;;;;;5049367;28;20061;-74
2021/09/22 02:42:18;;;;;;;15.32;11.05;;;358.40;2329.60;;;;;;5023006;28;20032;-75
2021/09/22 02:44:43;;;;;;;16.92;12.00;;;333.70;2329.60;;;;;;5033350;28;20025;-75
2021/09/22 02:47:09;;;;;;;18.13;12.75;;;333.70;2329.60;;;;;;5050961;28;20025;-75
2021/09/22 02:49:35;;;;;;;16.67;12.02;;;333.60;2329.60;;;;;;5033804;28;20059;-74
2021/09/22 02:52:01;;;;;;;18.55;13.27;;;333.60;2329.60;;;;;;5016264;28;20397;-74
2021/09/22 02:54:26;;;;;;;20.45;13.93;;;333.60;2329.60;;;;;;5030610;28;20045;-73
2021/09/22 02:56:52;;;;;;;15.27;11.48;;;333.50;2329.60;;;;;;5033195;28;20025;-73
2021/09/22 02:59:18;;;;;;;16.05;12.55;;;333.60;2329.60;;;;;;5051452;28;20029;-73
2021/09/22 03:01:44;;;;;;;18.60;13.07;;;333.50;2329.60;;;;;;5050397;28;20094;-73
2021/09/22 03:04:10;;;;;;;18.05;12.80;;;333.50;2329.60;;;;;;5020480;28;20037;-73
2021/09/22 03:06:35;;;;;;;15.93;12.32;;;333.50;2329.60;;;;;;5033228;28;20432;-74
2021/09/22 03:09:01;;;;;;;22.45;13.77;;;333.50;2329.60;;;;;;5051068;28;20040;-75
2021/09/22 03:11:27;;;;;;;18.83;13.93;;;333.50;2329.60;;;;;;5051714;28;20468;-74
2021/09/22 03:13:53;;;;;;;19.55;13.93;;;333.40;2329.60;;;;;;5048164;28;20030;-72
2021/09/22 03:16:19;;;;;;;17.63;12.43;;;333.30;2329.60;;;;;;5037694;28;20029;-73
2021/09/22 03:18:45;;;;;;;16.23;12.75;;;333.30;2329.60;;;;;;5028070;28;20037;-72
2021/09/22 03:21:11;;;;;;;16.67;13.55;;;333.30;2329.60;;;;;;5030720;28;20029;-72
2021/09/22 03:23:38;;;;;;;19.02;13.18;;;333.30;2329.60;;;;;;5051087;28;20033;-72
2021/09/22 03:26:04;;;;;;;18.02;13.43;;;333.20;2329.60;;;;;;5049894;28;20137;-77
2021/09/22 03:28:29;;;;;;;17.88;13.52;;;333.20;2329.60;;;;;;5020245;28;20419;-74
2021/09/22 03:30:55;;;;;;;16.92;12.82;;;333.10;2329.60;;;;;;5044953;28;20767;-73
2021/09/22 03:33:21;;;;;;;19.35;13.55;;;333.10;2329.60;;;;;;5046840;28;20358;-73
2021/09/22 03:35:47;;;;;;;17.60;13.27;;;333.10;2329.60;;;;;;5041203;28;20025;-74
2021/09/22 03:38:13;;;;;;;20.45;15.88;;;333.10;2329.60;;;;;;5025644;28;20516;-75
2021/09/22 03:40:39;;;;;;;18.38;13.50;;;333.10;2329.60;;;;;;5038088;28;20032;-73
2021/09/22 03:43:05;;;;;;;17.40;13.50;;;333.00;2329.60;;;;;;5051551;28;20029;-74
2021/09/22 03:45:31;;;;;;;16.90;13.45;;;333.00;2329.60;;;;;;5051020;28;20052;-74
2021/09/22 03:47:57;;;;;;;18.73;15.23;;;333.00;2329.60;;;;;;5034975;28;20028;-80
2021/09/22 03:50:23;;;;;;;22.30;14.27;;;333.10;2329.60;;;;;;5030865;28;20041;-80
2021/09/22 03:52:49;;;;;;;18.77;14.77;;;333.00;2329.60;;;;;;5037520;28;20052;-80
2021/09/22 03:55:15;;;;;;;24.35;17.85;;;333.10;2329.60;;;;;;5033829;28;20075;-79
2021/09/22 03:57:41;;;;;;;20.88;16.13;;;333.00;2329.60;;;;;;5051206;28;20025;-78
2021/09/22 04:00:07;;;;;;;19.85;14.63;;;333.00;2329.60;;;;;;5051417;28;20027;-79
2021/09/22 04:02:33;;;;;;;19.90;14.65;;;333.00;2329.60;;;;;;5045507;28;20021;-77
2021/09/22 04:04:59;;;;;;;17.73;13.75;;;333.00;2329.60;;;;;;5033467;28;20485;-77
2021/09/22 04:07:24;;;;;;;19.15;13.95;;;332.90;2329.60;;;;;;5031984;28;20480;-78
2021/09/22 04:09:50;;;;;;;18.42;14.82;;;332.90;2329.60;;;;;;5051219;28;20021;-80
2021/09/22 04:12:16;;;;;;;19.02;16.10;;;332.90;2329.60;;;;;;5029514;28;20029;-79
2021/09/22 04:14:42;;;;;;;20.75;14.85;;;332.90;2329.60;;;;;;5030260;28;20032;-77
2021/09/22 04:17:08;;;;;;;20.90;14.18;;;332.90;2329.60;;;;;;5049962;28;20091;-78
2021/09/22 04:19:34;;;;;;;18.83;14.10;;;332.90;2329.60;;;;;;5054832;28;20833;-80
2021/09/22 04:22:01;;;;;;;18.60;14.90;;;332.90;2329.60;;;;;;5042988;28;20033;-76
2021/09/22 04:24:27;;;;;;;20.95;15.38;;;333.00;2329.60;;;;;;5044793;28;20045;-77
2021/09/22 04:26:53;;;;;;;21.08;14.93;;;333.00;2329.60;;;;;;5030799;28;20091;-80
2021/09/22 04:29:18;;;;;;;18.83;13.73;;;333.00;2329.60;;;;;;5030395;28;20091;-81
2021/09/22 04:31:44;;;;;;;19.95;15.20;;;333.00;2329.60;;;;;;5024808;28;20061;-82
2021/09/22 04:34:10;;;;;;;19.05;14.90;;;333.00;2329.60;;;;;;5028311;28;20376;-81
2021/09/22 04:36:36;;;;;;;19.00;13.13;;;333.00;2329.60;;;;;;5029054;28;20052;-81
2021/09/22 04:39:05;;;;;;;17.92;14.02;;;333.00;2329.60;;;;;;5014570;28;20022;-81
2021/09/22 04:41:31;;;;;;;18.73;13.32;;;333.00;2329.60;;;;;;5030449;28;20161;-80
2021/09/22 04:43:57;;;;;;;18.92;14.27;;;333.00;2329.60;;;;;;5034462;28;20057;-79
2021/09/22 04:46:22;;;;;;;18.48;13.13;;;333.00;2329.60;;;;;;5039080;28;20029;-80
2021/09/22 04:48:48;;;;;;;17.25;13.88;;;333.00;2329.60;;;;;;5025287;28;20060;-80
2021/09/22 04:51:14;;;;;;;18.90;14.10;;;333.00;2329.60;;;;;;5021768;28;20030;-80
2021/09/22 04:53:40;;;;;;;19.58;13.93;;;333.00;2329.60;;;;;;5034097;28;20029;-80
2021/09/22 04:56:05;;;;;;;17.63;13.05;;;333.00;2329.60;;;;;;5023790;28;20034;-78
2021/09/22 04:58:31;;;;;;;20.92;14.85;;;333.00;2329.60;;;;;;5022987;28;20041;-78
2021/09/22 05:01:01;;;;;;;16.05;13.18;;;333.00;2329.60;;;;;;5024169;28;20500;-80
2021/09/22 05:03:30;;;;;;;17.05;13.20;;;333.10;2329.60;;;;;;5024476;28;20036;-79
2021/09/22 05:05:57;;;;;;;16.48;13.43;;;333.10;2329.60;;;;;;5028622;28;20511;-80
2021/09/22 05:08:23;;;;;;;17.88;13.90;;;333.00;2329.60;;;;;;5027786;28;20025;-81
2021/09/22 05:10:49;;;;;;;27.42;13.57;;;333.10;2329.60;;;;;;5027988;28;20108;-78
2021/09/22 05:13:14;;;;;;;17.23;12.90;;;333.10;2329.60;;;;;;5024590;28;20021;-80
2021/09/22 05:15:40;;;;;;;18.80;13.45;;;333.10;2329.60;;;;;;5025299;28;20049;-80
2021/09/22 05:18:06;;;;;;;17.48;13.05;;;333.20;2329.60;;;;;;5025685;28;20044;-79
2021/09/22 05:20:32;;;;;;;16.15;13.30;;;333.10;2329.60;;;;;;5024795;28;20049;-80
2021/09/22 05:22:57;;;;;;;16.30;13.15;;;333.20;2329.60;;;;;;5021825;28;20113;-78
2021/09/22 05:25:23;;;;;;;18.63;13.45;;;333.10;2329.60;;;;;;5024609;28;20467;-77
2021/09/22 05:27:49;;;;;;;19.38;14.65;;;333.20;2329.60;;;;;;5028283;28;20030;-77
2021/09/22 05:30:15;;;;;;;17.10;12.32;;;333.20;2329.60;;;;;;5025229;28;20026;-78
2021/09/22 05:32:41;;;;;;;15.52;13.63;;;333.30;2329.60;;;;;;5026172;28;20018;-79
2021/09/22 05:35:08;;;;;;;16.08;12.27;;;333.10;2329.60;;;;;;5032333;28;20056;-78
2021/09/22 05:37:34;;;;;;;17.05;12.63;;;333.20;2329.60;;;;;;5023690;28;20041;-78
2021/09/22 05:40:00;;;;;;;19.85;12.95;;;333.30;2329.60;;;;;;5041780;28;20037;-79
2021/09/22 05:42:27;;;;;;;19.15;13.75;;;333.30;2329.60;;;;;;5033039;28;20033;-80
2021/09/22 05:44:53;;;;;;;17.17;12.80;;;333.30;2329.60;;;;;;5026028;28;20117;-79
2021/09/22 05:47:19;;;;;;;19.42;12.23;;;333.30;2329.60;;;;;;5027957;28;20109;-78
2021/09/22 05:49:45;;;;;;;16.50;12.80;;;333.30;2329.60;;;;;;5029756;28;20438;-78
2021/09/22 05:52:10;;;;;;;18.83;12.13;;;333.50;2329.60;;;;;;5024248;28;20025;-78
2021/09/22 05:54:37;;;;;;;17.35;13.02;;;333.60;2329.60;;;;;;5030006;28;20026;-79
2021/09/22 05:57:02;;;;;;;17.55;12.60;;;333.60;2329.60;;;;;;5026860;28;20100;-79
2021/09/22 05:59:29;;;;;;;16.90;12.05;;;333.60;2329.60;;;;;;5025676;28;20052;-76
2021/09/22 06:01:56;;;;;;;16.23;12.50;;;333.60;2329.60;;;;;;5031770;28;20040;-81
2021/09/22 06:04:21;;;;;;;15.98;12.27;;;333.70;2329.60;;;;;;5040520;28;20043;-81
2021/09/22 06:06:47;;;;;;;13.68;12.15;;;333.70;2329.60;;;;;;5022353;28;20113;-78
2021/09/22 06:09:13;;;;;;;15.05;11.57;;;333.70;2329.60;;;;;;5032302;28;20396;-79
2021/09/22 06:11:39;;;;;;;15.80;11.13;;;333.60;2329.60;;;;;;5030690;28;20096;-81
2021/09/22 06:14:05;;;;;;;14.95;11.50;;;333.60;2329.60;;;;;;5027921;28;20101;-80
2021/09/22 06:16:32;;;;;;;12.30;10.27;;;333.70;2329.60;;;;;;5028823;28;20036;-79
2021/09/22 06:18:58;;;;;;;15.18;11.70;;;333.70;2329.60;;;;;;5032391;28;20544;-78
2021/09/22 06:21:24;;;;;;;12.82;10.77;;;333.60;2329.60;;;;;;5028020;28;20120;-80
2021/09/22 06:23:53;;;;;;;17.38;11.57;;;333.60;2329.60;;;;;;5019946;28;20041;-78
2021/09/22 06:26:23;;;;;;;18.23;11.68;;;333.70;2329.60;;;;;;5049875;28;20029;-80
2021/09/22 06:28:49;;;;;;;13.90;10.80;;;333.50;2329.60;;;;;;5028828;28;20021;-80
2021/09/22 06:31:15;;;;;;;13.90;11.52;;;333.70;2329.60;;;;;;5043086;28;20025;-81
2021/09/22 06:33:41;;;;;;;16.67;12.38;;;358.50;2329.60;;;;;;5039657;28;20481;-78
2021/09/22 06:36:07;;;;;;;13.48;11.73;;;358.50;2329.60;;;;;;5034517;28;20036;-79
2021/09/22 06:38:33;;;;;;;17.30;12.07;;;358.50;2329.60;;;;;;5056070;28;20417;-80
2021/09/22 06:40:59;;;;;;;15.35;11.80;;;358.60;2329.60;;;;;;5023734;28;20041;-78
2021/09/22 06:43:24;;;;;;;15.63;10.57;;;358.60;2329.60;;;;;;5027267;28;20029;-79
2021/09/22 06:45:50;;;;;;;15.02;10.50;;;358.50;2329.60;;;;;;5049157;28;20056;-82
2021/09/22 06:48:16;;;;;;;13.98;11.02;;;358.50;2329.60;;;;;;5053363;28;20057;-80
2021/09/22 06:50:43;;;;;;;16.30;10.73;;;358.60;2329.60;;;;;;5034420;28;20052;-78
2021/09/22 06:53:09;;;;;;;15.07;9.38;;;358.60;2329.60;;;;;;5055720;28;20025;-81
2021/09/22 06:55:35;;;;;;;15.60;9.18;;;358.60;2329.60;;;;;;5030766;28;20166;-80
2021/09/22 06:58:01;;;;;;;13.20;10.45;;;358.60;2329.60;;;;;;5020826;28;20036;-79
2021/09/22 07:00:27;;;;;;;13.25;9.55;;;358.70;2329.60;;;;;;5030502;28;20041;-76
2021/09/22 07:02:53;;;;;;;14.38;10.02;;;358.80;2329.60;;;;;;5047679;28;20463;-76
2021/09/22 07:05:18;;;;;;;15.20;10.52;;;358.80;2329.60;;;;;;5040027;28;20036;-75
2021/09/22 07:07:46;;;;;;;14.25;9.85;;;358.90;2329.60;;;;;;5054035;28;20033;-75
2021/09/22 07:10:13;;;;;;;12.88;9.50;;;358.80;2329.60;;;;;;5051449;28;20075;-75
2021/09/22 07:12:39;;;;;;;18.42;9.52;;;358.90;2329.60;;;;;;5047877;28;20025;-75
2021/09/22 07:15:06;;;;;;;12.68;8.55;;;359.00;2329.60;;;;;;5061327;28;20047;-75
2021/09/22 07:17:31;;;;;;;14.57;9.00;;;359.10;2329.60;;;;;;5064779;28;20032;-75
2021/09/22 07:19:57;;;;;;;13.25;9.38;;;359.10;2329.60;;;;;;5064599;28;20435;-75
2021/09/22 07:22:23;;;;;;;11.77;9.10;;;359.30;2329.60;;;;;;5050645;28;20029;-75
2021/09/22 07:24:49;;;;;;;12.50;9.02;;;359.30;2329.60;;;;;;5031344;28;20041;-75
2021/09/22 07:27:15;;;;;;;11.13;7.47;;;384.00;2329.60;;;;;;5057040;28;20082;-74
2021/09/22 07:29:41;;;;;;;13.38;9.68;;;384.00;2329.60;;;;;;5057270;28;20021;-75
2021/09/22 07:32:08;;;;;;;12.20;9.45;;;384.00;2329.60;;;;;;5063210;28;20112;-75
2021/09/22 07:34:34;;;;;;;13.70;9.00;;;384.10;2329.60;;;;;;5052211;28;20024;-76
2021/09/22 07:37:06;;;;;;;14.40;9.52;;;384.00;2329.60;;;;;;5032423;28;20033;-75
2021/09/22 07:39:31;;;;;;;13.18;8.85;;;384.10;2329.60;;;;;;5057964;28;20051;-76
2021/09/22 07:41:57;;;;;;;12.32;9.27;;;384.10;2329.60;;;;;;5032523;28;20468;-75
2021/09/22 07:44:23;;;;;;;10.77;7.10;;;384.10;2329.60;;;;;;5047502;28;20112;-75
2021/09/22 07:46:49;;;;;;;13.65;9.95;;;384.10;2329.60;;;;;;5056395;28;20018;-75
2021/09/22 07:49:14;;;;;;;13.95;9.02;;;384.10;2329.60;;;;;;5051234;28;20025;-76
2021/09/22 07:51:40;;;;;;;10.95;7.53;;;384.10;2329.60;;;;;;5056706;28;20117;-76
2021/09/22 07:54:06;;;;;;;12.13;8.00;;;384.10;2329.60;;;;;;5055690;28;20442;-75
2021/09/22 07:56:32;;;;;;;12.18;8.32;;;384.10;2329.60;;;;;;5058902;28;20029;-75
2021/09/22 07:58:57;;;;;;;13.52;8.93;;;384.10;2329.60;;;;;;5058580;28;20017;-75
2021/09/22 08:01:23;;;;;;;12.20;9.27;;;384.10;2329.60;;;;;;5054778;28;20017;-75
2021/09/22 08:03:49;;;;;;;15.48;8.20;;;384.20;2329.60;;;;;;5051648;28;20020;-75
2021/09/22 08:06:15;;;;;;;14.27;10.30;;;384.20;2329.60;;;;;;5061383;28;20036;-78
2021/09/22 08:08:40;;;;;;;15.35;8.65;;;384.30;2329.60;;;;;;5054130;28;20036;-76
2021/09/22 08:11:06;;;;;;;10.02;7.45;;;384.30;2329.60;;;;;;5052696;28;20027;-76
2021/09/22 08:13:32;;;;;;;9.35;7.30;;;384.30;2329.60;;;;;;5050259;28;20034;-76
2021/09/22 08:15:57;;;;;;;10.90;7.95;;;384.20;2329.60;;;;;;5044703;28;20029;-75
2021/09/22 08:18:23;;;;;;;14.07;8.27;;;384.20;2329.60;;;;;;5042594;28;20040;-75
2021/09/22 08:20:49;;;;;;;12.98;8.25;;;384.20;2329.60;;;;;;5048400;28;20026;-75
2021/09/22 08:23:15;;;;;;;11.23;8.63;;;384.20;2329.60;;;;;;5032138;28;20084;-75
2021/09/22 08:25:41;;;;;;;9.43;7.43;;;384.10;2329.60;;;;;;5050579;28;20072;-75
2021/09/22 08:28:06;;;;;;;10.45;8.05;;;384.20;2329.60;;;;;;5043081;28;20100;-74
2021/09/22 08:30:32;;;;;;;11.25;6.80;;;384.20;2329.60;;;;;;5045034;28;20067;-75
2021/09/22 08:32:58;;;;;;;11.88;8.55;;;384.10;2329.60;;;;;;5050504;28;20062;-80
2021/09/22 08:35:24;;;;;;;10.32;7.78;;;384.20;2329.60;;;;;;5035406;28;20057;-82
2021/09/22 08:37:50;;;;;;;12.40;7.32;;;384.20;2329.60;;;;;;5019147;28;20036;-83
2021/09/22 08:40:16;;;;;;;13.80;8.80;;;384.30;2329.60;;;;;;5054334;28;20032;-81
2021/09/22 08:42:42;;;;;;;19.15;11.45;;;384.30;2329.60;;;;;;5036628;28;20032;-81
2021/09/22 08:45:11;;;;;;;12.40;8.13;;;384.50;2329.60;;;;;;5021932;28;20400;-80
2021/09/22 08:47:39;;;;;;;14.05;8.95;;;384.50;2329.60;;;;;;5028876;28;20422;-80
2021/09/22 08:50:06;;;;;;;10.90;7.90;;;384.60;2329.60;;;;;;5041204;28;20036;-80
2021/09/22 08:52:32;;;;;;;10.90;8.18;;;384.60;2329.60;;;;;;5018567;28;20029;-80
2021/09/22 08:54:57;;;;;;;12.63;8.00;;;384.50;2329.60;;;;;;5028176;28;20399;-80
2021/09/22 08:57:23;;;;;;;12.57;7.63;;;384.70;2329.60;;;;;;5025419;28;20029;-80
2021/09/22 08:59:49;;;;;;;10.45;8.00;;;384.60;2329.60;;;;;;5026693;28;20431;-80
2021/09/22 09:02:17;;;;;;;11.82;8.18;;;384.60;2329.60;;;;;;5025171;28;20055;-78
2021/09/22 09:04:45;;;;;;;11.02;7.80;;;384.70;2329.60;;;;;;5028004;28;20539;-80
2021/09/22 09:07:12;;;;;;;12.40;8.40;;;384.70;2329.60;;;;;;5046723;28;20105;-81
2021/09/22 09:09:42;;;;;;;10.27;7.68;;;384.50;2329.60;;;;;;5035226;28;20021;-81
2021/09/22 09:12:19;;;;;;;12.25;8.93;;;384.60;2329.60;;;;;;5048678;28;20022;-80
2021/09/22 09:14:57;;;;;;;13.68;8.23;;;384.60;2329.60;;;;;;5034129;28;20037;-80
2021/09/22 09:17:44;;;;;;;14.00;10.10;;;384.70;2329.60;;;;;;5033500;28;20025;-80
2021/09/22 09:20:21;;;;;;;16.70;10.90;;;384.80;2329.60;;;;;;5060983;28;20129;-79
2021/09/22 09:22:55;;;;;;;16.02;9.93;;;384.90;2329.60;;;;;;5027075;28;20520;-79
2021/09/22 09:25:30;;;;;;;15.10;10.27;;;409.60;2355.20;;;;;;5031987;28;20045;-80
2021/09/22 09:27:56;;;;;;;12.80;8.52;;;409.60;2355.20;;;;;;5024471;28;20029;-79
2021/09/22 09:30:25;;;;;;;16.33;9.80;;;409.60;2355.20;;;;;;5028606;28;20027;-79
2021/09/22 09:32:51;;;;;;;12.85;10.65;;;409.80;2355.20;;;;;;5033857;28;20032;-81
2021/09/22 09:35:23;;;;;;;11.98;9.00;;;409.60;2355.20;;;;;;5030959;28;20026;-81
2021/09/22 09:37:54;;;;;;;14.27;10.75;;;409.60;2355.20;;;;;;5031023;28;20036;-80
2021/09/22 09:40:30;;;;;;;15.85;10.68;;;409.60;2355.20;;;;;;5034269;28;20029;-80
2021/09/22 09:42:57;;;;;;;;;;;409.60;2355.20;;;;;;5031658;28;20046;-80
2021/09/22 09:45:25;;;;;;;12.38;8.93;;;409.80;2355.20;;;;;;5030762;28;19945;-81
2021/09/22 09:48:03;;;;;;;14.18;10.38;;;410.10;2355.20;;;;;;5030657;28;20538;-80
2021/09/22 09:50:30;;;;;;;17.13;11.40;;;409.90;2355.20;;;;;;5027276;28;20038;-80
2021/09/22 09:53:00;;;;;;;13.82;10.57;;;409.90;2355.20;;;;;;5026472;28;20497;-76
2021/09/22 09:55:27;;;;;;;15.82;10.20;;;410.00;2355.20;;;;;;5030730;28;20036;-76
2021/09/22 09:57:55;;;;;;;22.20;13.45;;;409.90;2355.20;;;;;;5016095;28;20025;-74
2021/09/22 10:00:41;;;;;;;12.93;10.27;;;410.00;2355.20;;;;;;5019407;28;20030;-75
2021/09/22 10:03:09;;;;;;;23.33;16.38;;;410.20;2355.20;;;;;;5012723;28;20034;-74
2021/09/22 10:05:34;;;;;;;14.15;11.05;;;410.20;2355.20;;;;;;5024685;28;20102;-74
2021/09/22 10:08:00;;;;;;;15.10;11.60;;;410.30;2355.20;;;;;;5016968;28;20124;-75
2021/09/22 10:10:27;;;;;;;15.73;11.77;;;410.30;2355.20;;;;;;5020543;28;20033;-75
2021/09/22 10:12:55;;;;;;;19.38;11.57;;;410.30;2355.20;;;;;;5019140;28;20036;-76
2021/09/22 10:15:23;;;;;;;15.00;10.85;;;410.30;2355.20;;;;;;5030005;28;20067;-75
2021/09/22 10:17:50;;;;;;;15.32;11.68;;;410.20;2355.20;;;;;;5024355;28;20030;-74
2021/09/22 10:20:19;;;;;;;13.90;9.70;;;410.10;2355.20;;;;;;5031480;28;20496;-75
2021/09/22 10:22:44;;;;;;;13.85;10.27;;;410.10;2355.20;;;;;;5031107;28;20048;-75
2021/09/22 10:25:10;;;;;;;12.68;9.95;;;410.10;2355.20;;;;;;5041792;28;20041;-75
2021/09/22 10:27:37;;;;;;;13.80;9.82;;;384.70;2329.60;;;;;;5027632;28;20137;-75
2021/09/22 10:30:07;;;;;;;14.23;10.75;;;410.00;2355.20;;;;;;5021446;28;20041;-76
2021/09/22 10:32:41;;;;;;;12.73;10.55;;;409.90;2355.20;;;;;;5040122;28;20109;-75
2021/09/22 10:35:25;;;;;;;14.75;10.73;;;410.00;2355.20;;;;;;5026839;28;20114;-76
2021/09/22 10:37:59;;;;;;;13.55;10.63;;;410.20;2355.20;;;;;;5036069;28;20036;-76
2021/09/22 10:40:34;;;;;;;15.52;11.32;;;410.20;2355.20;;;;;;5019610;28;20029;-76
2021/09/22 10:43:15;;;;;;;16.13;10.20;;;410.10;2355.20;;;;;;5047976;28;20495;-75
2021/09/22 10:45:41;;;;;;;12.65;10.35;;;410.10;2355.20;;;;;;5032339;28;20032;-75
2021/09/22 10:48:20;;;;;;;21.02;11.13;;;410.10;2355.20;;;;;;5030727;28;20503;-75
2021/09/22 10:50:55;;;;;;;19.08;13.55;;;410.10;2355.20;;;;;;5044618;28;20516;-75
2021/09/22 10:53:37;;;;;;;19.90;13.00;;;410.00;2355.20;;;;;;5030845;28;20119;-75
2021/09/22 10:56:15;;;;;;;16.63;13.18;;;410.10;2355.20;;;;;;5025642;28;20089;-72
2021/09/22 10:58:46;;;;;;;16.90;12.63;;;410.10;2355.20;;;;;;5036519;28;20052;-74
2021/09/22 11:01:35;;;;;;;16.30;12.52;;;410.10;2355.20;;;;;;5028769;28;20100;-74
2021/09/22 11:04:07;;;;;;;16.90;12.88;;;410.20;2355.20;;;;;;5020967;28;20052;-75
2021/09/22 11:06:43;;;;;;;15.20;11.55;;;410.20;2355.20;;;;;;5021838;28;20045;-75
2021/09/22 11:09:13;;;;;;;15.18;11.88;;;410.30;2355.20;;;;;;5051119;28;20032;-76
2021/09/22 11:14:29;;;;;;;13.73;11.68;;;410.10;2355.20;;;;;;5049933;28;20042;-76
2021/09/22 11:17:15;;;;;;;16.35;11.55;;;410.20;2355.20;;;;;;5050905;28;20527;-75
2021/09/22 11:19:43;;;;;;;17.85;11.43;;;410.40;2355.20;;;;;;5024678;28;20491;-75
2021/09/22 11:22:31;;;;;;;17.65;11.82;;;410.40;2355.20;;;;;;5030093;28;20041;-77
2021/09/22 11:25:06;;;;;;;12.38;10.70;;;435.20;2355.20;;;;;;5017513;28;20389;-74
2021/09/22 11:27:33;;;;;;;16.65;11.82;;;435.20;2355.20;;;;;;5013542;28;20096;-75
2021/09/22 11:30:02;;;;;;;14.70;11.02;;;410.50;2355.20;;;;;;5008173;28;20022;-74
2021/09/22 11:32:32;;;;;;;15.75;11.63;;;435.20;2355.20;;;;;;5012795;28;20042;-75
2021/09/22 11:35:09;;;;;;;18.52;12.57;;;410.50;2355.20;;;;;;5018210;28;20137;-74
2021/09/22 11:37:38;;;;;;;21.55;12.20;;;435.40;2355.20;;;;;;5015297;28;20029;-75
2021/09/22 11:40:13;;;;;;;13.48;10.95;;;435.50;2355.20;;;;;;5010094;28;20128;-74
2021/09/22 11:42:51;;;;;;;16.85;11.60;;;435.50;2355.20;;;;;;4995205;28;20313;-75
2021/09/22 11:45:23;;;;;;;17.13;10.45;;;435.40;2355.20;;;;;;5014802;28;20034;-86
2021/09/22 11:47:49;;;;;;;14.63;10.95;;;435.20;2355.20;;;;;;5015339;28;20041;-77
2021/09/22 11:50:35;;;;;;;17.55;10.95;;;410.50;2355.20;;;;;;5025645;28;20172;-75
2021/09/22 11:53:02;;;;;;;13.73;12.20;;;435.20;2355.20;;;;;;5022633;28;20057;-74
2021/09/22 11:55:29;;;;;;;18.13;13.60;;;435.20;2355.20;;;;;;5019714;28;20500;-74
2021/09/22 11:57:55;;;;;;;17.17;12.52;;;435.20;2355.20;;;;;;5016278;28;20042;-75
2021/09/22 12:00:23;;;;;;;13.25;10.05;;;435.20;2355.20;;;;;;5020257;28;20119;-74
2021/09/22 12:02:49;;;;;;;17.00;11.07;;;410.40;2355.20;;;;;;5020547;28;20141;-74
2021/09/22 12:05:16;;;;;;;16.63;13.05;;;410.30;2355.20;;;;;;5017475;28;20393;-74